sensor_id;sensor_type;location;lat;lon;timestamp;P1;durP1;ratioP1;P2;durP2;ratioP2
76103;SDS011;64831;44.870;37.336;2023-01-23T00:01:49;45.38;;;12.65;;
76103;SDS011;64831;44.870;37.336;2023-01-23T00:04:15;37.80;;;12.00;;
76103;SDS011;64831;44.870;37.336;2023-01-23T00:06:41;41.15;;;12.35;;
76103;SDS011;64831;44.870;37.336;2023-01-23T00:09:07;30.92;;;10.05;;
76103;SDS011;64831;44.870;37.336;2023-01-23T00:11:33;32.28;;;11.48;;
76103;SDS011;64831;44.870;37.336;2023-01-23T00:14:00;31.92;;;10.07;;
76103;SDS011;64831;44.870;37.336;2023-01-23T00:16:27;34.92;;;10.60;;
76103;SDS011;64831;44.870;37.336;2023-01-23T00:18:55;35.80;;;10.68;;
76103;SDS011;64831;44.870;37.336;2023-01-23T00:21:23;32.35;;;10.80;;
76103;SDS011;64831;44.870;37.336;2023-01-23T00:23:51;35.05;;;11.40;;
76103;SDS011;64831;44.870;37.336;2023-01-23T00:26:25;39.00;;;12.57;;
76103;SDS011;64831;44.870;37.336;2023-01-23T00:28:52;32.55;;;11.20;;
76103;SDS011;64831;44.870;37.336;2023-01-23T00:31:23;30.42;;;10.75;;
76103;SDS011;64831;44.870;37.336;2023-01-23T00:33:55;28.25;;;10.30;;
76103;SDS011;64831;44.870;37.336;2023-01-23T00:36:30;31.40;;;9.70;;
76103;SDS011;64831;44.870;37.336;2023-01-23T00:38:57;32.65;;;10.15;;
76103;SDS011;64831;44.870;37.336;2023-01-23T00:41:24;22.48;;;7.90;;
76103;SDS011;64831;44.870;37.336;2023-01-23T00:43:51;33.40;;;10.32;;
76103;SDS011;64831;44.870;37.336;2023-01-23T00:46:18;31.23;;;11.07;;
76103;SDS011;64831;44.870;37.336;2023-01-23T00:48:45;29.05;;;10.00;;
76103;SDS011;64831;44.870;37.336;2023-01-23T00:51:11;27.55;;;9.63;;
76103;SDS011;64831;44.870;37.336;2023-01-23T00:53:37;29.10;;;10.00;;
76103;SDS011;64831;44.870;37.336;2023-01-23T00:56:03;29.33;;;9.88;;
76103;SDS011;64831;44.870;37.336;2023-01-23T00:58:30;33.42;;;9.98;;
76103;SDS011;64831;44.870;37.336;2023-01-23T01:00:56;31.77;;;9.02;;
76103;SDS011;64831;44.870;37.336;2023-01-23T01:03:22;28.15;;;8.68;;
76103;SDS011;64831;44.870;37.336;2023-01-23T01:05:49;25.23;;;7.68;;
76103;SDS011;64831;44.870;37.336;2023-01-23T01:08:16;23.92;;;8.07;;
76103;SDS011;64831;44.870;37.336;2023-01-23T01:10:42;30.13;;;9.13;;
76103;SDS011;64831;44.870;37.336;2023-01-23T01:13:08;27.20;;;9.73;;
76103;SDS011;64831;44.870;37.336;2023-01-23T01:15:36;23.63;;;8.57;;
76103;SDS011;64831;44.870;37.336;2023-01-23T01:18:02;22.13;;;8.68;;
76103;SDS011;64831;44.870;37.336;2023-01-23T01:20:30;25.42;;;8.10;;
76103;SDS011;64831;44.870;37.336;2023-01-23T01:22:57;26.27;;;8.02;;
76103;SDS011;64831;44.870;37.336;2023-01-23T01:25:23;20.55;;;7.30;;
76103;SDS011;64831;44.870;37.336;2023-01-23T01:27:49;25.05;;;8.02;;
76103;SDS011;64831;44.870;37.336;2023-01-23T01:30:16;22.30;;;8.13;;
76103;SDS011;64831;44.870;37.336;2023-01-23T01:32:43;23.50;;;8.05;;
76103;SDS011;64831;44.870;37.336;2023-01-23T01:35:09;24.90;;;8.02;;
76103;SDS011;64831;44.870;37.336;2023-01-23T01:37:36;24.88;;;8.85;;
76103;SDS011;64831;44.870;37.336;2023-01-23T01:40:04;21.48;;;7.70;;
76103;SDS011;64831;44.870;37.336;2023-01-23T01:42:35;25.65;;;8.18;;
76103;SDS011;64831;44.870;37.336;2023-01-23T01:48:13;25.17;;;9.00;;
76103;SDS011;64831;44.870;37.336;2023-01-23T01:50:40;23.83;;;8.88;;
76103;SDS011;64831;44.870;37.336;2023-01-23T01:53:07;29.40;;;9.80;;
76103;SDS011;64831;44.870;37.336;2023-01-23T01:55:33;26.48;;;9.30;;
76103;SDS011;64831;44.870;37.336;2023-01-23T01:58:00;23.05;;;9.27;;
76103;SDS011;64831;44.870;37.336;2023-01-23T02:00:26;29.58;;;8.57;;
76103;SDS011;64831;44.870;37.336;2023-01-23T02:02:53;23.02;;;8.85;;
76103;SDS011;64831;44.870;37.336;2023-01-23T02:05:24;26.52;;;8.57;;
76103;SDS011;64831;44.870;37.336;2023-01-23T02:10:53;27.90;;;8.82;;
76103;SDS011;64831;44.870;37.336;2023-01-23T02:13:25;24.40;;;8.13;;
76103;SDS011;64831;44.870;37.336;2023-01-23T02:15:58;17.25;;;6.80;;
76103;SDS011;64831;44.870;37.336;2023-01-23T02:18:27;22.90;;;8.52;;
76103;SDS011;64831;44.870;37.336;2023-01-23T02:20:55;17.48;;;7.25;;
76103;SDS011;64831;44.870;37.336;2023-01-23T02:23:41;22.90;;;7.70;;
76103;SDS011;64831;44.870;37.336;2023-01-23T02:26:19;12.85;;;6.10;;
76103;SDS011;64831;44.870;37.336;2023-01-23T02:28:51;31.38;;;9.00;;
76103;SDS011;64831;44.870;37.336;2023-01-23T02:31:20;23.88;;;8.30;;
76103;SDS011;64831;44.870;37.336;2023-01-23T02:33:48;25.00;;;9.13;;
76103;SDS011;64831;44.870;37.336;2023-01-23T02:36:18;20.83;;;7.70;;
76103;SDS011;64831;44.870;37.336;2023-01-23T02:38:50;29.08;;;9.32;;
76103;SDS011;64831;44.870;37.336;2023-01-23T02:41:38;23.98;;;8.05;;
76103;SDS011;64831;44.870;37.336;2023-01-23T02:44:22;30.95;;;9.02;;
76103;SDS011;64831;44.870;37.336;2023-01-23T02:46:58;24.80;;;9.20;;
76103;SDS011;64831;44.870;37.336;2023-01-23T02:51:53;26.45;;;8.65;;
76103;SDS011;64831;44.870;37.336;2023-01-23T02:54:22;29.90;;;8.18;;
76103;SDS011;64831;44.870;37.336;2023-01-23T02:56:48;26.20;;;7.80;;
76103;SDS011;64831;44.870;37.336;2023-01-23T02:59:15;27.63;;;8.73;;
76103;SDS011;64831;44.870;37.336;2023-01-23T03:02:00;28.95;;;8.57;;
76103;SDS011;64831;44.870;37.336;2023-01-23T03:04:26;21.30;;;7.78;;
76103;SDS011;64831;44.870;37.336;2023-01-23T03:06:51;27.42;;;8.73;;
76103;SDS011;64831;44.870;37.336;2023-01-23T03:09:18;31.15;;;9.57;;
76103;SDS011;64831;44.870;37.336;2023-01-23T03:11:44;27.48;;;8.57;;
76103;SDS011;64831;44.870;37.336;2023-01-23T03:14:15;24.95;;;9.27;;
76103;SDS011;64831;44.870;37.336;2023-01-23T03:16:43;29.98;;;9.30;;
76103;SDS011;64831;44.870;37.336;2023-01-23T03:19:14;17.08;;;7.55;;
76103;SDS011;64831;44.870;37.336;2023-01-23T03:21:40;26.23;;;8.88;;
76103;SDS011;64831;44.870;37.336;2023-01-23T03:24:07;25.95;;;9.00;;
76103;SDS011;64831;44.870;37.336;2023-01-23T03:26:42;36.05;;;10.10;;
76103;SDS011;64831;44.870;37.336;2023-01-23T03:29:13;30.15;;;9.48;;
76103;SDS011;64831;44.870;37.336;2023-01-23T03:34:26;25.33;;;7.80;;
76103;SDS011;64831;44.870;37.336;2023-01-23T03:36:52;31.40;;;8.23;;
76103;SDS011;64831;44.870;37.336;2023-01-23T03:39:19;30.02;;;9.38;;
76103;SDS011;64831;44.870;37.336;2023-01-23T03:42:03;32.60;;;9.68;;
76103;SDS011;64831;44.870;37.336;2023-01-23T03:44:31;38.35;;;10.35;;
76103;SDS011;64831;44.870;37.336;2023-01-23T03:46:57;24.60;;;7.78;;
76103;SDS011;64831;44.870;37.336;2023-01-23T03:49:23;38.70;;;8.45;;
76103;SDS011;64831;44.870;37.336;2023-01-23T03:51:55;28.90;;;10.05;;
76103;SDS011;64831;44.870;37.336;2023-01-23T03:54:22;32.08;;;10.00;;
76103;SDS011;64831;44.870;37.336;2023-01-23T03:56:49;28.65;;;9.57;;
76103;SDS011;64831;44.870;37.336;2023-01-23T03:59:50;34.55;;;10.20;;
76103;SDS011;64831;44.870;37.336;2023-01-23T04:02:19;27.50;;;9.27;;
76103;SDS011;64831;44.870;37.336;2023-01-23T04:04:44;27.73;;;9.75;;
76103;SDS011;64831;44.870;37.336;2023-01-23T04:07:10;25.90;;;8.32;;
76103;SDS011;64831;44.870;37.336;2023-01-23T04:09:38;15.82;;;5.13;;
76103;SDS011;64831;44.870;37.336;2023-01-23T04:12:05;25.17;;;9.05;;
76103;SDS011;64831;44.870;37.336;2023-01-23T04:14:36;30.20;;;10.18;;
76103;SDS011;64831;44.870;37.336;2023-01-23T04:17:03;23.67;;;8.40;;
76103;SDS011;64831;44.870;37.336;2023-01-23T04:19:29;33.97;;;9.88;;
76103;SDS011;64831;44.870;37.336;2023-01-23T04:21:55;30.45;;;9.88;;
76103;SDS011;64831;44.870;37.336;2023-01-23T04:24:21;28.77;;;9.30;;
76103;SDS011;64831;44.870;37.336;2023-01-23T04:26:48;21.48;;;7.10;;
76103;SDS011;64831;44.870;37.336;2023-01-23T04:29:14;31.73;;;10.43;;
76103;SDS011;64831;44.870;37.336;2023-01-23T04:31:42;29.17;;;9.20;;
76103;SDS011;64831;44.870;37.336;2023-01-23T04:34:08;31.10;;;9.90;;
76103;SDS011;64831;44.870;37.336;2023-01-23T04:36:34;27.88;;;8.77;;
76103;SDS011;64831;44.870;37.336;2023-01-23T04:39:00;26.05;;;9.45;;
76103;SDS011;64831;44.870;37.336;2023-01-23T04:41:28;32.17;;;9.60;;
76103;SDS011;64831;44.870;37.336;2023-01-23T04:44:05;28.40;;;9.48;;
76103;SDS011;64831;44.870;37.336;2023-01-23T04:47:13;32.15;;;9.07;;
76103;SDS011;64831;44.870;37.336;2023-01-23T04:49:39;27.02;;;7.95;;
76103;SDS011;64831;44.870;37.336;2023-01-23T04:52:05;21.88;;;6.85;;
76103;SDS011;64831;44.870;37.336;2023-01-23T04:54:35;25.15;;;8.65;;
76103;SDS011;64831;44.870;37.336;2023-01-23T08:13:30;44.40;;;17.10;;
76103;SDS011;64831;44.870;37.336;2023-01-23T08:15:57;41.88;;;18.38;;
76103;SDS011;64831;44.870;37.336;2023-01-23T08:18:23;45.65;;;19.05;;
76103;SDS011;64831;44.870;37.336;2023-01-23T08:20:53;43.50;;;16.15;;
76103;SDS011;64831;44.870;37.336;2023-01-23T08:23:22;45.92;;;18.77;;
76103;SDS011;64831;44.870;37.336;2023-01-23T08:25:56;48.50;;;19.05;;
76103;SDS011;64831;44.870;37.336;2023-01-23T08:28:24;48.53;;;20.08;;
76103;SDS011;64831;44.870;37.336;2023-01-23T08:30:50;31.23;;;12.73;;
76103;SDS011;64831;44.870;37.336;2023-01-23T08:33:17;46.63;;;19.80;;
76103;SDS011;64831;44.870;37.336;2023-01-23T08:35:47;45.00;;;17.55;;
76103;SDS011;64831;44.870;37.336;2023-01-23T08:38:14;41.30;;;17.52;;
76103;SDS011;64831;44.870;37.336;2023-01-23T08:40:42;40.15;;;17.08;;
76103;SDS011;64831;44.870;37.336;2023-01-23T08:43:07;40.53;;;15.75;;
76103;SDS011;64831;44.870;37.336;2023-01-23T08:45:35;40.38;;;13.85;;
76103;SDS011;64831;44.870;37.336;2023-01-23T08:48:00;43.63;;;15.95;;
76103;SDS011;64831;44.870;37.336;2023-01-23T08:50:27;29.63;;;13.00;;
76103;SDS011;64831;44.870;37.336;2023-01-23T08:52:53;42.67;;;16.15;;
76103;SDS011;64831;44.870;37.336;2023-01-23T08:55:19;43.28;;;16.73;;
76103;SDS011;64831;44.870;37.336;2023-01-23T08:57:45;40.28;;;14.88;;
76103;SDS011;64831;44.870;37.336;2023-01-23T09:00:11;40.92;;;15.88;;
76103;SDS011;64831;44.870;37.336;2023-01-23T09:02:37;42.15;;;16.58;;
76103;SDS011;64831;44.870;37.336;2023-01-23T09:05:03;37.10;;;13.40;;
76103;SDS011;64831;44.870;37.336;2023-01-23T09:07:30;34.28;;;15.60;;
76103;SDS011;64831;44.870;37.336;2023-01-23T09:09:55;45.63;;;16.67;;
76103;SDS011;64831;44.870;37.336;2023-01-23T09:12:21;31.75;;;13.40;;
76103;SDS011;64831;44.870;37.336;2023-01-23T09:14:47;33.95;;;13.38;;
76103;SDS011;64831;44.870;37.336;2023-01-23T09:17:13;42.63;;;15.80;;
76103;SDS011;64831;44.870;37.336;2023-01-23T09:19:39;47.47;;;18.58;;
76103;SDS011;64831;44.870;37.336;2023-01-23T09:22:05;34.67;;;15.52;;
76103;SDS011;64831;44.870;37.336;2023-01-23T09:24:31;45.95;;;19.15;;
76103;SDS011;64831;44.870;37.336;2023-01-23T09:26:57;49.17;;;18.98;;
76103;SDS011;64831;44.870;37.336;2023-01-23T09:29:23;34.08;;;14.80;;
76103;SDS011;64831;44.870;37.336;2023-01-23T09:31:48;40.42;;;16.60;;
76103;SDS011;64831;44.870;37.336;2023-01-23T09:34:14;48.15;;;18.17;;
76103;SDS011;64831;44.870;37.336;2023-01-23T09:36:40;40.40;;;15.68;;
76103;SDS011;64831;44.870;37.336;2023-01-23T09:39:06;36.72;;;13.05;;
76103;SDS011;64831;44.870;37.336;2023-01-23T09:41:32;32.00;;;12.93;;
76103;SDS011;64831;44.870;37.336;2023-01-23T09:44:02;32.13;;;13.50;;
76103;SDS011;64831;44.870;37.336;2023-01-23T09:46:40;40.97;;;14.65;;
76103;SDS011;64831;44.870;37.336;2023-01-23T09:49:13;29.70;;;14.40;;
76103;SDS011;64831;44.870;37.336;2023-01-23T09:51:59;32.25;;;14.05;;
76103;SDS011;64831;44.870;37.336;2023-01-23T09:57:22;35.47;;;13.55;;
76103;SDS011;64831;44.870;37.336;2023-01-23T09:59:51;30.30;;;12.05;;
76103;SDS011;64831;44.870;37.336;2023-01-23T10:02:20;39.72;;;13.68;;
76103;SDS011;64831;44.870;37.336;2023-01-23T10:04:48;33.58;;;12.98;;
76103;SDS011;64831;44.870;37.336;2023-01-23T10:15:43;30.48;;;12.10;;
76103;SDS011;64831;44.870;37.336;2023-01-23T10:18:36;32.13;;;13.00;;
76103;SDS011;64831;44.870;37.336;2023-01-23T10:26:48;33.70;;;13.40;;
76103;SDS011;64831;44.870;37.336;2023-01-23T10:32:39;36.10;;;13.73;;
76103;SDS011;64831;44.870;37.336;2023-01-23T10:38:04;34.67;;;13.18;;
76103;SDS011;64831;44.870;37.336;2023-01-23T10:40:36;38.22;;;13.18;;
76103;SDS011;64831;44.870;37.336;2023-01-23T10:43:31;31.58;;;13.35;;
76103;SDS011;64831;44.870;37.336;2023-01-23T10:45:57;33.80;;;12.00;;
76103;SDS011;64831;44.870;37.336;2023-01-23T10:48:56;36.05;;;14.15;;
76103;SDS011;64831;44.870;37.336;2023-01-23T10:51:23;35.03;;;12.30;;
76103;SDS011;64831;44.870;37.336;2023-01-23T10:56:30;33.20;;;13.77;;
76103;SDS011;64831;44.870;37.336;2023-01-23T10:58:57;30.98;;;11.98;;
76103;SDS011;64831;44.870;37.336;2023-01-23T11:01:29;40.17;;;15.45;;
76103;SDS011;64831;44.870;37.336;2023-01-23T11:04:01;38.10;;;13.45;;
76103;SDS011;64831;44.870;37.336;2023-01-23T11:06:35;40.13;;;14.88;;
76103;SDS011;64831;44.870;37.336;2023-01-23T11:09:01;38.78;;;13.98;;
76103;SDS011;64831;44.870;37.336;2023-01-23T11:11:27;37.92;;;14.02;;
76103;SDS011;64831;44.870;37.336;2023-01-23T11:14:28;33.97;;;12.73;;
76103;SDS011;64831;44.870;37.336;2023-01-23T11:16:58;39.58;;;13.95;;
76103;SDS011;64831;44.870;37.336;2023-01-23T11:19:26;39.50;;;13.30;;
76103;SDS011;64831;44.870;37.336;2023-01-23T11:22:01;39.85;;;14.23;;
76103;SDS011;64831;44.870;37.336;2023-01-23T11:27:00;32.65;;;13.55;;
76103;SDS011;64831;44.870;37.336;2023-01-23T11:29:40;34.25;;;13.35;;
76103;SDS011;64831;44.870;37.336;2023-01-23T11:32:24;41.72;;;16.65;;
76103;SDS011;64831;44.870;37.336;2023-01-23T11:34:52;47.92;;;16.38;;
76103;SDS011;64831;44.870;37.336;2023-01-23T11:37:33;45.47;;;15.32;;
76103;SDS011;64831;44.870;37.336;2023-01-23T11:40:04;45.13;;;14.77;;
76103;SDS011;64831;44.870;37.336;2023-01-23T11:42:37;34.72;;;12.35;;
76103;SDS011;64831;44.870;37.336;2023-01-23T11:48:31;34.65;;;12.35;;
76103;SDS011;64831;44.870;37.336;2023-01-23T11:54:29;34.75;;;13.27;;
76103;SDS011;64831;44.870;37.336;2023-01-23T12:02:40;37.22;;;13.73;;
76103;SDS011;64831;44.870;37.336;2023-01-23T12:05:20;29.15;;;11.82;;
76103;SDS011;64831;44.870;37.336;2023-01-23T12:13:34;38.08;;;12.65;;
76103;SDS011;64831;44.870;37.336;2023-01-23T12:16:16;40.58;;;12.25;;
76103;SDS011;64831;44.870;37.336;2023-01-23T12:21:44;40.72;;;12.88;;
76103;SDS011;64831;44.870;37.336;2023-01-23T12:24:18;42.15;;;13.88;;
76103;SDS011;64831;44.870;37.336;2023-01-23T12:30:23;40.47;;;13.55;;
76103;SDS011;64831;44.870;37.336;2023-01-23T12:33:10;30.10;;;11.88;;
76103;SDS011;64831;44.870;37.336;2023-01-23T12:41:08;44.90;;;13.30;;
76103;SDS011;64831;44.870;37.336;2023-01-23T12:43:58;38.38;;;12.75;;
76103;SDS011;64831;44.870;37.336;2023-01-23T12:46:47;36.15;;;11.57;;
76103;SDS011;64831;44.870;37.336;2023-01-23T12:49:31;38.25;;;13.32;;
76103;SDS011;64831;44.870;37.336;2023-01-23T12:52:14;48.03;;;14.70;;
76103;SDS011;64831;44.870;37.336;2023-01-23T12:54:52;36.08;;;11.27;;
76103;SDS011;64831;44.870;37.336;2023-01-23T12:57:25;40.97;;;12.68;;
76103;SDS011;64831;44.870;37.336;2023-01-23T13:02:59;39.75;;;12.95;;
76103;SDS011;64831;44.870;37.336;2023-01-23T13:05:38;36.63;;;12.65;;
76103;SDS011;64831;44.870;37.336;2023-01-23T13:11:41;38.65;;;13.07;;
76103;SDS011;64831;44.870;37.336;2023-01-23T13:25:45;41.20;;;13.55;;
76103;SDS011;64831;44.870;37.336;2023-01-23T13:31:04;38.55;;;12.27;;
76103;SDS011;64831;44.870;37.336;2023-01-23T13:36:32;46.25;;;13.40;;
76103;SDS011;64831;44.870;37.336;2023-01-23T13:39:37;42.65;;;13.45;;
76103;SDS011;64831;44.870;37.336;2023-01-23T13:45:21;44.28;;;13.13;;
76103;SDS011;64831;44.870;37.336;2023-01-23T13:47:59;32.33;;;10.93;;
76103;SDS011;64831;44.870;37.336;2023-01-23T13:51:14;38.80;;;13.07;;
76103;SDS011;64831;44.870;37.336;2023-01-23T13:53:42;40.10;;;13.60;;
76103;SDS011;64831;44.870;37.336;2023-01-23T13:56:29;22.92;;;8.40;;
76103;SDS011;64831;44.870;37.336;2023-01-23T13:59:14;42.05;;;12.70;;
76103;SDS011;64831;44.870;37.336;2023-01-23T14:01:54;41.72;;;13.10;;
76103;SDS011;64831;44.870;37.336;2023-01-23T14:05:02;44.20;;;13.32;;
76103;SDS011;64831;44.870;37.336;2023-01-23T14:07:40;34.22;;;11.32;;
76103;SDS011;64831;44.870;37.336;2023-01-23T14:13:10;41.53;;;14.43;;
76103;SDS011;64831;44.870;37.336;2023-01-23T14:15:38;38.20;;;11.77;;
76103;SDS011;64831;44.870;37.336;2023-01-23T14:20:59;33.58;;;11.63;;
76103;SDS011;64831;44.870;37.336;2023-01-23T14:23:32;39.58;;;13.82;;
76103;SDS011;64831;44.870;37.336;2023-01-23T14:26:01;40.50;;;14.85;;
76103;SDS011;64831;44.870;37.336;2023-01-23T14:28:29;32.40;;;12.88;;
76103;SDS011;64831;44.870;37.336;2023-01-23T14:30:57;35.55;;;12.65;;
76103;SDS011;64831;44.870;37.336;2023-01-23T14:33:43;35.50;;;13.40;;
76103;SDS011;64831;44.870;37.336;2023-01-23T14:36:16;28.48;;;11.63;;
76103;SDS011;64831;44.870;37.336;2023-01-23T14:38:44;34.38;;;11.68;;
76103;SDS011;64831;44.870;37.336;2023-01-23T14:41:12;40.33;;;12.65;;
76103;SDS011;64831;44.870;37.336;2023-01-23T14:43:39;36.55;;;11.75;;
76103;SDS011;64831;44.870;37.336;2023-01-23T14:46:17;43.72;;;15.45;;
76103;SDS011;64831;44.870;37.336;2023-01-23T14:48:47;44.92;;;14.02;;
76103;SDS011;64831;44.870;37.336;2023-01-23T14:51:20;41.78;;;14.15;;
76103;SDS011;64831;44.870;37.336;2023-01-23T14:54:01;42.40;;;14.03;;
76103;SDS011;64831;44.870;37.336;2023-01-23T14:56:29;45.70;;;15.30;;
76103;SDS011;64831;44.870;37.336;2023-01-23T14:58:59;40.38;;;13.88;;
76103;SDS011;64831;44.870;37.336;2023-01-23T15:01:28;36.20;;;12.18;;
76103;SDS011;64831;44.870;37.336;2023-01-23T15:03:59;31.38;;;11.20;;
76103;SDS011;64831;44.870;37.336;2023-01-23T15:06:27;43.92;;;12.73;;
76103;SDS011;64831;44.870;37.336;2023-01-23T15:09:03;37.55;;;12.07;;
76103;SDS011;64831;44.870;37.336;2023-01-23T15:11:31;36.28;;;12.73;;
76103;SDS011;64831;44.870;37.336;2023-01-23T15:13:57;30.67;;;11.27;;
76103;SDS011;64831;44.870;37.336;2023-01-23T15:16:30;31.88;;;10.45;;
76103;SDS011;64831;44.870;37.336;2023-01-23T15:19:04;25.75;;;9.02;;
76103;SDS011;64831;44.870;37.336;2023-01-23T15:21:33;30.10;;;10.95;;
76103;SDS011;64831;44.870;37.336;2023-01-23T15:24:03;28.85;;;9.35;;
76103;SDS011;64831;44.870;37.336;2023-01-23T15:26:41;24.13;;;8.38;;
76103;SDS011;64831;44.870;37.336;2023-01-23T15:31:35;31.85;;;10.77;;
76103;SDS011;64831;44.870;37.336;2023-01-23T15:36:39;23.65;;;9.63;;
76103;SDS011;64831;44.870;37.336;2023-01-23T15:39:14;28.40;;;10.57;;
76103;SDS011;64831;44.870;37.336;2023-01-23T15:41:49;15.23;;;6.15;;
76103;SDS011;64831;44.870;37.336;2023-01-23T15:44:17;16.35;;;6.65;;
76103;SDS011;64831;44.870;37.336;2023-01-23T15:46:45;30.00;;;11.00;;
76103;SDS011;64831;44.870;37.336;2023-01-23T15:49:11;31.77;;;10.00;;
76103;SDS011;64831;44.870;37.336;2023-01-23T15:51:37;24.52;;;7.93;;
76103;SDS011;64831;44.870;37.336;2023-01-23T15:54:03;33.03;;;10.57;;
76103;SDS011;64831;44.870;37.336;2023-01-23T15:56:33;38.85;;;12.05;;
76103;SDS011;64831;44.870;37.336;2023-01-23T15:59:00;15.10;;;5.93;;
76103;SDS011;64831;44.870;37.336;2023-01-23T16:01:27;16.25;;;6.88;;
76103;SDS011;64831;44.870;37.336;2023-01-23T16:03:53;31.30;;;8.60;;
76103;SDS011;64831;44.870;37.336;2023-01-23T16:06:20;30.02;;;10.40;;
76103;SDS011;64831;44.870;37.336;2023-01-23T16:08:48;29.30;;;10.00;;
76103;SDS011;64831;44.870;37.336;2023-01-23T16:11:16;15.68;;;6.70;;
76103;SDS011;64831;44.870;37.336;2023-01-23T16:13:43;38.42;;;11.65;;
76103;SDS011;64831;44.870;37.336;2023-01-23T16:16:16;16.73;;;4.97;;
76103;SDS011;64831;44.870;37.336;2023-01-23T16:18:43;16.75;;;6.88;;
76103;SDS011;64831;44.870;37.336;2023-01-23T16:21:13;20.73;;;7.90;;
76103;SDS011;64831;44.870;37.336;2023-01-23T16:23:40;33.92;;;11.15;;
76103;SDS011;64831;44.870;37.336;2023-01-23T16:26:09;26.60;;;7.53;;
76103;SDS011;64831;44.870;37.336;2023-01-23T16:28:43;36.38;;;10.88;;
76103;SDS011;64831;44.870;37.336;2023-01-23T16:31:13;25.30;;;10.02;;
76103;SDS011;64831;44.870;37.336;2023-01-23T16:33:40;26.10;;;10.70;;
76103;SDS011;64831;44.870;37.336;2023-01-23T16:36:11;31.92;;;8.65;;
76103;SDS011;64831;44.870;37.336;2023-01-23T16:41:15;27.95;;;9.82;;
76103;SDS011;64831;44.870;37.336;2023-01-23T16:43:42;24.90;;;9.20;;
76103;SDS011;64831;44.870;37.336;2023-01-23T16:46:08;25.20;;;9.38;;
76103;SDS011;64831;44.870;37.336;2023-01-23T16:48:35;28.02;;;8.93;;
76103;SDS011;64831;44.870;37.336;2023-01-23T16:51:13;33.20;;;11.05;;
76103;SDS011;64831;44.870;37.336;2023-01-23T16:53:43;25.33;;;9.48;;
76103;SDS011;64831;44.870;37.336;2023-01-23T16:56:23;23.35;;;10.02;;
76103;SDS011;64831;44.870;37.336;2023-01-23T16:58:56;23.10;;;8.27;;
76103;SDS011;64831;44.870;37.336;2023-01-23T17:01:23;39.60;;;11.95;;
76103;SDS011;64831;44.870;37.336;2023-01-23T17:03:56;21.55;;;7.72;;
76103;SDS011;64831;44.870;37.336;2023-01-23T17:06:25;25.00;;;8.60;;
76103;SDS011;64831;44.870;37.336;2023-01-23T17:08:50;22.02;;;8.05;;
76103;SDS011;64831;44.870;37.336;2023-01-23T17:11:26;32.55;;;10.93;;
76103;SDS011;64831;44.870;37.336;2023-01-23T17:13:59;31.25;;;10.80;;
76103;SDS011;64831;44.870;37.336;2023-01-23T17:16:28;19.08;;;8.18;;
76103;SDS011;64831;44.870;37.336;2023-01-23T17:18:55;32.92;;;11.98;;
76103;SDS011;64831;44.870;37.336;2023-01-23T17:21:23;15.90;;;5.80;;
76103;SDS011;64831;44.870;37.336;2023-01-23T17:23:53;22.00;;;8.40;;
76103;SDS011;64831;44.870;37.336;2023-01-23T17:26:19;29.35;;;9.90;;
76103;SDS011;64831;44.870;37.336;2023-01-23T17:28:45;20.45;;;7.68;;
76103;SDS011;64831;44.870;37.336;2023-01-23T17:31:18;24.83;;;9.25;;
76103;SDS011;64831;44.870;37.336;2023-01-23T17:33:47;19.65;;;7.72;;
76103;SDS011;64831;44.870;37.336;2023-01-23T17:36:14;39.22;;;11.88;;
76103;SDS011;64831;44.870;37.336;2023-01-23T17:38:40;21.75;;;8.00;;
76103;SDS011;64831;44.870;37.336;2023-01-23T17:41:11;28.15;;;9.45;;
76103;SDS011;64831;44.870;37.336;2023-01-23T17:43:40;33.28;;;11.55;;
76103;SDS011;64831;44.870;37.336;2023-01-23T17:46:12;32.72;;;11.32;;
76103;SDS011;64831;44.870;37.336;2023-01-23T17:48:50;30.95;;;11.15;;
76103;SDS011;64831;44.870;37.336;2023-01-23T17:51:17;33.55;;;10.52;;
76103;SDS011;64831;44.870;37.336;2023-01-23T17:53:44;20.42;;;7.85;;
76103;SDS011;64831;44.870;37.336;2023-01-23T17:56:10;31.45;;;10.07;;
76103;SDS011;64831;44.870;37.336;2023-01-23T17:58:37;26.30;;;9.93;;
76103;SDS011;64831;44.870;37.336;2023-01-23T18:01:03;35.20;;;13.27;;
76103;SDS011;64831;44.870;37.336;2023-01-23T18:03:35;32.80;;;11.85;;
76103;SDS011;64831;44.870;37.336;2023-01-23T18:06:01;33.80;;;11.48;;
76103;SDS011;64831;44.870;37.336;2023-01-23T18:08:27;26.73;;;9.82;;
76103;SDS011;64831;44.870;37.336;2023-01-23T18:10:53;30.90;;;11.13;;
76103;SDS011;64831;44.870;37.336;2023-01-23T18:13:30;26.55;;;9.10;;
76103;SDS011;64831;44.870;37.336;2023-01-23T18:16:24;26.95;;;9.93;;
76103;SDS011;64831;44.870;37.336;2023-01-23T18:18:58;36.80;;;12.13;;
76103;SDS011;64831;44.870;37.336;2023-01-23T18:21:26;27.63;;;10.02;;
76103;SDS011;64831;44.870;37.336;2023-01-23T18:23:52;31.05;;;11.75;;
76103;SDS011;64831;44.870;37.336;2023-01-23T18:40:47;30.83;;;9.73;;
76103;SDS011;64831;44.870;37.336;2023-01-23T18:45:58;18.60;;;7.35;;
76103;SDS011;64831;44.870;37.336;2023-01-23T18:48:24;31.67;;;11.27;;
76103;SDS011;64831;44.870;37.336;2023-01-23T18:50:57;20.20;;;8.90;;
76103;SDS011;64831;44.870;37.336;2023-01-23T18:56:44;25.98;;;10.05;;
76103;SDS011;64831;44.870;37.336;2023-01-23T19:07:40;33.90;;;12.52;;
76103;SDS011;64831;44.870;37.336;2023-01-23T19:10:14;27.30;;;8.90;;
76103;SDS011;64831;44.870;37.336;2023-01-23T19:16:06;29.55;;;10.90;;
76103;SDS011;64831;44.870;37.336;2023-01-23T19:24:00;28.42;;;10.35;;
76103;SDS011;64831;44.870;37.336;2023-01-23T19:26:29;31.77;;;10.52;;
76103;SDS011;64831;44.870;37.336;2023-01-23T19:28:58;30.02;;;11.52;;
76103;SDS011;64831;44.870;37.336;2023-01-23T19:31:26;22.38;;;9.25;;
76103;SDS011;64831;44.870;37.336;2023-01-23T19:33:53;23.95;;;10.30;;
76103;SDS011;64831;44.870;37.336;2023-01-23T19:36:20;36.70;;;11.90;;
76103;SDS011;64831;44.870;37.336;2023-01-23T19:38:47;28.00;;;10.90;;
76103;SDS011;64831;44.870;37.336;2023-01-23T19:43:53;29.98;;;9.90;;
76103;SDS011;64831;44.870;37.336;2023-01-23T19:46:22;31.08;;;11.07;;
76103;SDS011;64831;44.870;37.336;2023-01-23T19:48:51;37.92;;;11.48;;
76103;SDS011;64831;44.870;37.336;2023-01-23T19:51:17;32.70;;;11.45;;
76103;SDS011;64831;44.870;37.336;2023-01-23T19:53:44;34.58;;;12.50;;
76103;SDS011;64831;44.870;37.336;2023-01-23T19:56:14;30.92;;;10.88;;
76103;SDS011;64831;44.870;37.336;2023-01-23T19:58:42;34.95;;;13.25;;
76103;SDS011;64831;44.870;37.336;2023-01-23T20:03:51;31.75;;;9.98;;
76103;SDS011;64831;44.870;37.336;2023-01-23T20:06:17;27.75;;;10.60;;
76103;SDS011;64831;44.870;37.336;2023-01-23T20:08:43;30.73;;;10.52;;
76103;SDS011;64831;44.870;37.336;2023-01-23T20:11:09;34.85;;;11.68;;
76103;SDS011;64831;44.870;37.336;2023-01-23T20:13:36;29.05;;;9.85;;
76103;SDS011;64831;44.870;37.336;2023-01-23T20:16:06;33.92;;;12.00;;
76103;SDS011;64831;44.870;37.336;2023-01-23T20:18:39;39.95;;;13.43;;
76103;SDS011;64831;44.870;37.336;2023-01-23T20:21:06;34.92;;;11.45;;
76103;SDS011;64831;44.870;37.336;2023-01-23T20:23:32;27.65;;;10.55;;